Time,TemperatureF,DewpointF,PressureIn,WindDirection,WindDirectionDegrees,WindSpeedMPH,WindSpeedGustMPH,Humidity,HourlyPrecipIn,Conditions,Clouds,dailyrainin,SoftwareType,DateUTC
2013-08-16 01:21:00,60.0,29.0,-100.00,WNW,292,2.0,3.0,31,0.00,,,-99.99,,2013-08-16 07:21:00,
2013-08-16 01:31:00,60.0,29.0,-100.00,WNW,292,2.0,3.0,31,0.00,,,-99.99,,2013-08-16 07:31:00,
2013-08-16 02:21:00,58.0,31.0,-100.00,NNE,20,6.0,7.0,34,0.00,,,-99.99,,2013-08-16 08:21:00,
2013-08-16 02:32:00,58.0,31.0,-100.00,NNE,20,6.0,7.0,34,0.00,,,-99.99,,2013-08-16 08:32:00,
2013-08-16 02:52:00,54.0,30.0,-100.00,North,3,4.0,5.0,40,0.00,,,-99.99,,2013-08-16 08:52:00,
2013-08-16 03:01:00,54.0,30.0,-100.00,North,3,4.0,5.0,40,0.00,,,-99.99,,2013-08-16 09:01:00,
2013-08-16 03:21:00,52.0,35.0,-100.00,North,350,4.0,5.0,51,0.00,,,-99.99,,2013-08-16 09:21:00,
2013-08-16 03:33:00,52.0,35.0,-100.00,North,350,4.0,5.0,51,0.00,,,-99.99,,2013-08-16 09:33:00,
2013-08-16 03:53:00,52.0,26.0,-100.00,NW,326,5.0,7.0,36,0.00,,,-99.99,,2013-08-16 09:53:00,
2013-08-16 04:03:00,52.0,26.0,-100.00,NW,326,5.0,7.0,36,0.00,,,-99.99,,2013-08-16 10:03:00,
2013-08-16 04:23:00,54.0,24.0,-100.00,NW,316,6.0,8.0,30,0.00,,,-99.99,,2013-08-16 10:23:00,
2013-08-16 04:33:00,54.0,24.0,-100.00,NW,316,6.0,8.0,30,0.00,,,-99.99,,2013-08-16 10:33:00,
2013-08-16 04:52:00,54.0,22.0,-100.00,North,359,5.0,6.0,29,0.00,,,-99.99,,2013-08-16 10:52:00,
2013-08-16 05:02:00,54.0,22.0,-100.00,North,359,5.0,6.0,29,0.00,,,-99.99,,2013-08-16 11:02:00,
2013-08-16 05:21:00,52.0,22.0,-100.00,North,3,5.0,6.0,30,0.00,,,-99.99,,2013-08-16 11:21:00,
2013-08-16 05:32:00,52.0,22.0,-100.00,North,3,5.0,6.0,30,0.00,,,-99.99,,2013-08-16 11:32:00,
2013-08-16 05:52:00,49.0,28.0,-100.00,North,4,5.0,6.0,42,0.00,,,-99.99,,2013-08-16 11:52:00,
2013-08-16 06:02:00,49.0,28.0,-100.00,North,4,5.0,6.0,42,0.00,,,-99.99,,2013-08-16 12:02:00,
2013-08-16 06:21:00,48.0,28.0,-100.00,WNW,299,9.0,11.0,46,0.00,,,-99.99,,2013-08-16 12:21:00,
2013-08-16 06:31:00,48.0,28.0,-100.00,WNW,299,9.0,11.0,46,0.00,,,-99.99,,2013-08-16 12:31:00,
2013-08-16 06:52:00,51.0,25.0,-100.00,NW,316,6.0,6.0,36,0.00,,,-99.99,,2013-08-16 12:52:00,
2013-08-16 07:02:00,51.0,25.0,-100.00,NW,316,6.0,6.0,36,0.00,,,-99.99,,2013-08-16 13:02:00,
2013-08-16 07:21:00,51.0,24.0,-100.00,NNW,335,5.0,5.0,35,0.00,,,-99.99,,2013-08-16 13:21:00,
2013-08-16 07:32:00,51.0,24.0,-100.00,NNW,335,5.0,5.0,35,0.00,,,-99.99,,2013-08-16 13:32:00,
2013-08-16 07:53:00,50.0,31.0,-100.00,NW,326,4.0,5.0,47,0.00,,,-99.99,,2013-08-16 13:53:00,
2013-08-16 08:01:00,50.0,31.0,-100.00,NW,326,4.0,5.0,47,0.00,,,-99.99,,2013-08-16 14:01:00,
2013-08-16 08:21:00,54.0,26.0,-100.00,NNW,344,3.0,3.0,33,0.00,,,-99.99,,2013-08-16 14:21:00,
2013-08-16 08:31:00,54.0,26.0,-100.00,NNW,344,3.0,3.0,33,0.00,,,-99.99,,2013-08-16 14:31:00,
2013-08-16 08:52:00,60.0,30.0,-100.00,East,92,3.0,4.0,32,0.00,,,-99.99,,2013-08-16 14:52:00,
2013-08-16 09:01:00,60.0,30.0,-100.00,East,92,3.0,4.0,32,0.00,,,-99.99,,2013-08-16 15:01:00,
2013-08-16 09:22:00,61.0,33.0,-100.00,East,90,2.0,4.0,34,0.00,,,0.00,,2013-08-16 15:22:00,
2013-08-16 09:33:00,61.0,33.0,-100.00,East,90,2.0,4.0,34,0.00,,,0.00,,2013-08-16 15:33:00,
2013-08-16 09:56:00,66.0,35.0,-100.00,NW,315,2.0,3.0,30,0.00,,,0.00,,2013-08-16 15:56:00,
2013-08-16 10:04:00,66.0,35.0,-100.00,NW,315,2.0,3.0,30,0.00,,,0.00,,2013-08-16 16:04:00,
2013-08-16 10:23:00,74.0,36.0,-100.00,North,11,2.0,3.0,25,0.00,,,0.00,,2013-08-16 16:23:00,
2013-08-16 10:34:00,74.0,36.0,-100.00,North,11,2.0,3.0,25,0.00,,,0.00,,2013-08-16 16:34:00,
2013-08-16 10:57:00,80.0,26.0,-100.00,South,184,0.0,2.0,14,0.00,,,0.00,,2013-08-16 16:57:00,
2013-08-16 11:03:00,80.0,26.0,-100.00,South,184,0.0,2.0,14,0.00,,,0.00,,2013-08-16 17:03:00,
2013-08-16 11:28:00,79.0,27.0,-100.00,SSW,193,4.0,6.0,14,0.00,,,0.00,,2013-08-16 17:28:00,
2013-08-16 11:34:00,79.0,27.0,-100.00,SSW,193,4.0,6.0,14,0.00,,,0.00,,2013-08-16 17:34:00,
2013-08-16 12:00:00,81.0,37.0,-100.00,SW,230,7.0,9.0,21,0.00,,,0.00,,2013-08-16 18:00:00,
2013-08-16 12:06:00,81.0,37.0,-100.00,SW,230,7.0,9.0,21,0.00,,,0.00,,2013-08-16 18:06:00,
2013-08-16 12:28:00,86.0,31.0,-100.00,SSW,193,7.0,10.0,14,0.00,,,0.00,,2013-08-16 18:28:00,
2013-08-16 12:50:00,-999.0,-99.9,-100.00,SSW,210,5.0,8.0,17,0.00,,,0.00,,2013-08-16 18:50:00,
2013-08-16 12:55:00,87.0,31.0,-100.00,SSW,202,8.0,12.0,13,0.00,,,0.00,,2013-08-16 18:55:00,
2013-08-16 13:03:00,87.0,31.0,-100.00,SSW,202,8.0,12.0,13,0.00,,,0.00,,2013-08-16 19:03:00,
2013-08-16 13:14:00,87.0,31.0,-100.00,SSW,202,8.0,12.0,13,0.00,,,0.00,,2013-08-16 19:14:00,
2013-08-16 13:25:00,88.0,32.0,-100.00,SSW,203,8.0,10.0,14,0.00,,,0.00,,2013-08-16 19:25:00,
2013-08-16 13:46:00,89.0,29.0,-100.00,SW,234,11.0,13.0,11,0.00,,,0.00,,2013-08-16 19:46:00,
2013-08-16 14:11:00,89.0,29.0,-100.00,SW,229,11.0,14.0,12,0.00,,,0.00,,2013-08-16 20:11:00,
2013-08-16 14:44:00,90.0,29.0,-100.00,SW,227,13.0,18.0,11,0.00,,,0.00,,2013-08-16 20:44:00,
2013-08-16 15:11:00,91.0,34.0,-100.00,SW,234,11.0,15.0,13,0.00,,,0.00,,2013-08-16 21:11:00,
2013-08-16 15:40:00,-999.0,-99.9,-100.00,SSW,195,7.0,10.0,-999,0.00,,,0.00,,2013-08-16 21:40:00,
2013-08-16 16:13:00,92.0,31.0,-100.00,SSW,193,8.0,10.0,12,0.00,,,0.00,,2013-08-16 22:13:00,
2013-08-16 16:43:00,94.0,34.0,-100.00,SSW,195,5.0,6.0,12,0.00,,,0.00,,2013-08-16 22:43:00,
2013-08-16 16:52:00,94.0,34.0,-100.00,SSW,195,5.0,6.0,12,0.00,,,0.00,,2013-08-16 22:52:00,
2013-08-16 17:09:00,94.0,34.0,-100.00,SSW,195,5.0,6.0,12,0.00,,,0.00,,2013-08-16 23:09:00,
2013-08-16 17:23:00,93.0,27.0,-100.00,SSW,200,5.0,7.0,9,0.00,,,0.00,,2013-08-16 23:23:00,
2013-08-16 17:32:00,93.0,27.0,-100.00,SSW,200,5.0,7.0,9,0.00,,,0.00,,2013-08-16 23:32:00,
2013-08-16 17:52:00,91.0,31.0,-100.00,SSW,212,8.0,12.0,12,0.00,,,0.00,,2013-08-16 23:52:00,
2013-08-16 18:01:00,91.0,31.0,-100.00,SSW,212,8.0,12.0,12,0.00,,,0.00,,2013-08-17 00:01:00,
2013-08-16 18:21:00,93.0,33.0,-100.00,South,191,5.0,9.0,12,0.00,,,0.00,,2013-08-17 00:21:00,
2013-08-16 18:32:00,93.0,33.0,-100.00,South,191,5.0,9.0,12,0.00,,,0.00,,2013-08-17 00:32:00,
2013-08-16 18:52:00,91.0,38.0,-100.00,SW,230,4.0,8.0,16,0.00,,,0.00,,2013-08-17 00:52:00,
2013-08-16 19:01:00,91.0,38.0,-100.00,SW,230,4.0,8.0,16,0.00,,,0.00,,2013-08-17 01:01:00,
2013-08-16 19:21:00,90.0,33.0,-100.00,WSW,254,6.0,7.0,13,0.00,,,0.00,,2013-08-17 01:21:00,
2013-08-16 19:32:00,90.0,33.0,-100.00,WSW,254,6.0,7.0,13,0.00,,,0.00,,2013-08-17 01:32:00,
2013-08-16 19:52:00,91.0,30.0,-100.00,SW,230,6.0,7.0,12,0.00,,,0.00,,2013-08-17 01:52:00,
2013-08-16 20:01:00,91.0,30.0,-100.00,SW,230,6.0,7.0,12,0.00,,,0.00,,2013-08-17 02:01:00,
2013-08-16 20:21:00,85.0,40.0,-100.00,SW,236,2.0,4.0,20,0.00,,,0.00,,2013-08-17 02:21:00,
2013-08-16 20:31:00,85.0,40.0,-100.00,SW,236,2.0,4.0,20,0.00,,,0.00,,2013-08-17 02:31:00,
2013-08-16 20:52:00,87.0,25.0,-100.00,SW,217,3.0,3.0,11,0.00,,,0.00,,2013-08-17 02:52:00,
2013-08-16 21:01:00,87.0,25.0,-100.00,SW,217,3.0,3.0,11,0.00,,,0.00,,2013-08-17 03:01:00,
2013-08-16 23:12:00,69.0,42.0,-100.00,WSW,247,0.0,1.0,38,0.00,,,0.00,,2013-08-17 05:12:00,
2013-08-16 23:22:00,68.0,38.0,-100.00,NW,326,1.0,2.0,33,0.00,,,0.00,,2013-08-17 05:22:00,
2013-08-16 23:42:00,68.0,42.0,-100.00,NNW,344,3.0,3.0,38,0.00,,,0.00,,2013-08-17 05:42:00,
2013-08-16 23:52:00,64.0,29.0,-100.00,North,356,3.0,3.0,27,0.00,,,0.00,,2013-08-17 05:52:00,